sensor_id;sensor_type;location;lat;lon;timestamp;P1;durP1;ratioP1;P2;durP2;ratioP2
71176;SDS011;58877;51.992;4.504;2023-12-20T00:02:01;7.67;;;4.71;;
71176;SDS011;58877;51.992;4.504;2023-12-20T00:04:27;6.24;;;3.83;;
71176;SDS011;58877;51.992;4.504;2023-12-20T00:06:53;7.06;;;4.37;;
71176;SDS011;58877;51.992;4.504;2023-12-20T00:09:18;8.67;;;5.27;;
71176;SDS011;58877;51.992;4.504;2023-12-20T00:11:44;7.67;;;4.68;;
71176;SDS011;58877;51.992;4.504;2023-12-20T00:14:11;7.15;;;4.42;;
71176;SDS011;58877;51.992;4.504;2023-12-20T00:16:37;7.04;;;4.42;;
71176;SDS011;58877;51.992;4.504;2023-12-20T00:19:02;7.27;;;4.59;;
71176;SDS011;58877;51.992;4.504;2023-12-20T00:21:28;7.28;;;4.54;;
71176;SDS011;58877;51.992;4.504;2023-12-20T00:23:54;6.67;;;4.12;;
71176;SDS011;58877;51.992;4.504;2023-12-20T00:26:19;6.87;;;4.29;;
71176;SDS011;58877;51.992;4.504;2023-12-20T00:28:48;8.71;;;5.40;;
71176;SDS011;58877;51.992;4.504;2023-12-20T00:31:16;9.11;;;5.54;;
71176;SDS011;58877;51.992;4.504;2023-12-20T00:33:42;7.84;;;4.79;;
71176;SDS011;58877;51.992;4.504;2023-12-20T00:36:08;7.57;;;4.77;;
71176;SDS011;58877;51.992;4.504;2023-12-20T00:38:34;7.60;;;4.79;;
71176;SDS011;58877;51.992;4.504;2023-12-20T00:41:00;8.90;;;5.49;;
71176;SDS011;58877;51.992;4.504;2023-12-20T00:43:26;9.17;;;5.60;;
71176;SDS011;58877;51.992;4.504;2023-12-20T00:45:51;7.67;;;4.71;;
71176;SDS011;58877;51.992;4.504;2023-12-20T00:48:20;7.71;;;4.73;;
71176;SDS011;58877;51.992;4.504;2023-12-20T00:50:49;9.16;;;5.67;;
71176;SDS011;58877;51.992;4.504;2023-12-20T00:53:15;7.85;;;4.88;;
71176;SDS011;58877;51.992;4.504;2023-12-20T00:55:41;7.68;;;4.82;;
71176;SDS011;58877;51.992;4.504;2023-12-20T00:58:10;8.43;;;5.25;;
71176;SDS011;58877;51.992;4.504;2023-12-20T01:00:37;9.15;;;5.63;;
71176;SDS011;58877;51.992;4.504;2023-12-20T01:03:03;9.49;;;5.82;;
71176;SDS011;58877;51.992;4.504;2023-12-20T01:05:29;8.44;;;5.22;;
71176;SDS011;58877;51.992;4.504;2023-12-20T01:07:54;9.44;;;5.83;;
71176;SDS011;58877;51.992;4.504;2023-12-20T01:10:23;8.76;;;5.42;;
71176;SDS011;58877;51.992;4.504;2023-12-20T01:12:51;7.91;;;5.01;;
71176;SDS011;58877;51.992;4.504;2023-12-20T01:15:17;8.00;;;5.04;;
71176;SDS011;58877;51.992;4.504;2023-12-20T01:17:48;8.25;;;5.31;;
71176;SDS011;58877;51.992;4.504;2023-12-20T01:20:14;8.45;;;5.39;;
71176;SDS011;58877;51.992;4.504;2023-12-20T01:22:40;8.46;;;5.39;;
71176;SDS011;58877;51.992;4.504;2023-12-20T01:25:14;7.62;;;4.81;;
71176;SDS011;58877;51.992;4.504;2023-12-20T01:27:39;6.59;;;4.17;;
71176;SDS011;58877;51.992;4.504;2023-12-20T01:30:05;7.66;;;4.88;;
71176;SDS011;58877;51.992;4.504;2023-12-20T01:32:34;8.11;;;5.19;;
71176;SDS011;58877;51.992;4.504;2023-12-20T01:35:00;7.84;;;5.11;;
71176;SDS011;58877;51.992;4.504;2023-12-20T01:37:25;7.56;;;4.85;;
71176;SDS011;58877;51.992;4.504;2023-12-20T01:39:51;8.93;;;5.55;;
71176;SDS011;58877;51.992;4.504;2023-12-20T01:42:18;8.35;;;5.13;;
71176;SDS011;58877;51.992;4.504;2023-12-20T01:44:43;11.25;;;6.88;;
71176;SDS011;58877;51.992;4.504;2023-12-20T01:47:09;8.90;;;5.51;;
71176;SDS011;58877;51.992;4.504;2023-12-20T01:49:35;8.77;;;5.32;;
71176;SDS011;58877;51.992;4.504;2023-12-20T01:52:01;9.03;;;5.54;;
71176;SDS011;58877;51.992;4.504;2023-12-20T01:54:30;8.33;;;5.19;;
71176;SDS011;58877;51.992;4.504;2023-12-20T01:57:04;8.92;;;5.52;;
71176;SDS011;58877;51.992;4.504;2023-12-20T01:59:31;10.00;;;6.12;;
71176;SDS011;58877;51.992;4.504;2023-12-20T02:01:57;9.40;;;5.72;;
71176;SDS011;58877;51.992;4.504;2023-12-20T02:04:22;9.17;;;5.62;;
71176;SDS011;58877;51.992;4.504;2023-12-20T02:06:49;9.22;;;5.68;;
71176;SDS011;58877;51.992;4.504;2023-12-20T02:09:20;8.11;;;5.08;;
71176;SDS011;58877;51.992;4.504;2023-12-20T02:11:49;8.56;;;5.28;;
71176;SDS011;58877;51.992;4.504;2023-12-20T02:14:14;8.94;;;5.48;;
71176;SDS011;58877;51.992;4.504;2023-12-20T02:16:40;8.71;;;5.40;;
71176;SDS011;58877;51.992;4.504;2023-12-20T02:19:09;8.55;;;5.31;;
71176;SDS011;58877;51.992;4.504;2023-12-20T02:21:39;9.45;;;5.82;;
71176;SDS011;58877;51.992;4.504;2023-12-20T02:24:04;8.68;;;5.24;;
71176;SDS011;58877;51.992;4.504;2023-12-20T02:26:31;10.92;;;6.45;;
71176;SDS011;58877;51.992;4.504;2023-12-20T02:28:58;10.35;;;6.04;;
71176;SDS011;58877;51.992;4.504;2023-12-20T02:31:24;10.50;;;6.04;;
71176;SDS011;58877;51.992;4.504;2023-12-20T02:33:50;10.43;;;5.94;;
71176;SDS011;58877;51.992;4.504;2023-12-20T02:36:15;9.04;;;5.21;;
71176;SDS011;58877;51.992;4.504;2023-12-20T02:38:47;10.19;;;5.99;;
71176;SDS011;58877;51.992;4.504;2023-12-20T02:41:13;10.70;;;6.36;;
71176;SDS011;58877;51.992;4.504;2023-12-20T02:43:43;9.80;;;5.85;;
71176;SDS011;58877;51.992;4.504;2023-12-20T02:46:09;9.75;;;5.78;;
71176;SDS011;58877;51.992;4.504;2023-12-20T02:48:34;10.24;;;5.99;;
71176;SDS011;58877;51.992;4.504;2023-12-20T02:51:03;9.30;;;5.58;;
71176;SDS011;58877;51.992;4.504;2023-12-20T02:53:28;8.59;;;5.16;;
71176;SDS011;58877;51.992;4.504;2023-12-20T02:55:57;9.68;;;5.83;;
71176;SDS011;58877;51.992;4.504;2023-12-20T02:58:25;10.08;;;6.10;;
71176;SDS011;58877;51.992;4.504;2023-12-20T03:00:51;8.49;;;5.17;;
71176;SDS011;58877;51.992;4.504;2023-12-20T03:03:17;9.29;;;5.70;;
71176;SDS011;58877;51.992;4.504;2023-12-20T03:05:45;8.92;;;5.51;;
71176;SDS011;58877;51.992;4.504;2023-12-20T03:08:11;9.94;;;6.03;;
71176;SDS011;58877;51.992;4.504;2023-12-20T03:10:37;9.41;;;5.70;;
71176;SDS011;58877;51.992;4.504;2023-12-20T03:13:05;10.57;;;6.42;;
71176;SDS011;58877;51.992;4.504;2023-12-20T03:15:30;10.61;;;6.42;;
71176;SDS011;58877;51.992;4.504;2023-12-20T03:17:55;9.31;;;5.61;;
71176;SDS011;58877;51.992;4.504;2023-12-20T03:20:21;9.05;;;5.45;;
71176;SDS011;58877;51.992;4.504;2023-12-20T03:22:47;11.67;;;6.93;;
71176;SDS011;58877;51.992;4.504;2023-12-20T03:25:15;12.43;;;7.27;;
71176;SDS011;58877;51.992;4.504;2023-12-20T03:27:41;10.70;;;6.20;;
71176;SDS011;58877;51.992;4.504;2023-12-20T03:30:06;11.08;;;6.45;;
71176;SDS011;58877;51.992;4.504;2023-12-20T03:32:32;9.52;;;5.67;;
71176;SDS011;58877;51.992;4.504;2023-12-20T03:35:01;9.42;;;5.63;;
71176;SDS011;58877;51.992;4.504;2023-12-20T03:37:27;9.41;;;5.59;;
71176;SDS011;58877;51.992;4.504;2023-12-20T03:39:55;9.90;;;5.88;;
71176;SDS011;58877;51.992;4.504;2023-12-20T03:42:24;10.23;;;6.06;;
71176;SDS011;58877;51.992;4.504;2023-12-20T03:44:49;10.41;;;6.19;;
71176;SDS011;58877;51.992;4.504;2023-12-20T03:47:15;10.47;;;6.13;;
71176;SDS011;58877;51.992;4.504;2023-12-20T03:49:41;8.78;;;5.21;;
71176;SDS011;58877;51.992;4.504;2023-12-20T03:52:06;8.71;;;5.27;;
71176;SDS011;58877;51.992;4.504;2023-12-20T03:54:32;8.50;;;5.22;;
71176;SDS011;58877;51.992;4.504;2023-12-20T03:56:58;10.72;;;6.56;;
71176;SDS011;58877;51.992;4.504;2023-12-20T03:59:23;7.65;;;4.64;;
71176;SDS011;58877;51.992;4.504;2023-12-20T04:01:49;8.50;;;5.23;;
71176;SDS011;58877;51.992;4.504;2023-12-20T04:04:15;10.46;;;6.33;;
71176;SDS011;58877;51.992;4.504;2023-12-20T04:06:40;10.74;;;6.50;;
71176;SDS011;58877;51.992;4.504;2023-12-20T04:09:06;10.71;;;6.44;;
71176;SDS011;58877;51.992;4.504;2023-12-20T04:11:34;8.98;;;5.43;;
71176;SDS011;58877;51.992;4.504;2023-12-20T04:14:00;8.23;;;4.99;;
71176;SDS011;58877;51.992;4.504;2023-12-20T04:16:26;9.46;;;5.81;;
71176;SDS011;58877;51.992;4.504;2023-12-20T04:18:51;8.28;;;5.11;;
71176;SDS011;58877;51.992;4.504;2023-12-20T04:21:17;10.06;;;6.10;;
71176;SDS011;58877;51.992;4.504;2023-12-20T04:23:43;10.31;;;6.19;;
71176;SDS011;58877;51.992;4.504;2023-12-20T04:26:14;10.71;;;6.41;;
71176;SDS011;58877;51.992;4.504;2023-12-20T04:28:43;11.93;;;7.13;;
71176;SDS011;58877;51.992;4.504;2023-12-20T04:31:08;11.09;;;6.56;;
71176;SDS011;58877;51.992;4.504;2023-12-20T04:33:34;10.99;;;6.52;;
71176;SDS011;58877;51.992;4.504;2023-12-20T04:36:06;9.79;;;5.89;;
71176;SDS011;58877;51.992;4.504;2023-12-20T04:38:34;9.61;;;5.74;;
71176;SDS011;58877;51.992;4.504;2023-12-20T04:41:00;9.77;;;5.78;;
71176;SDS011;58877;51.992;4.504;2023-12-20T04:43:28;10.75;;;6.33;;
71176;SDS011;58877;51.992;4.504;2023-12-20T04:45:55;11.15;;;6.49;;
71176;SDS011;58877;51.992;4.504;2023-12-20T04:48:20;11.47;;;6.60;;
71176;SDS011;58877;51.992;4.504;2023-12-20T04:50:46;10.71;;;6.18;;
71176;SDS011;58877;51.992;4.504;2023-12-20T04:53:11;10.86;;;6.38;;
71176;SDS011;58877;51.992;4.504;2023-12-20T04:55:37;10.12;;;5.95;;
71176;SDS011;58877;51.992;4.504;2023-12-20T04:58:02;9.56;;;5.68;;
71176;SDS011;58877;51.992;4.504;2023-12-20T05:00:28;11.78;;;7.01;;
71176;SDS011;58877;51.992;4.504;2023-12-20T05:02:53;9.74;;;5.74;;
71176;SDS011;58877;51.992;4.504;2023-12-20T05:05:19;10.74;;;6.36;;
71176;SDS011;58877;51.992;4.504;2023-12-20T05:07:44;11.20;;;6.67;;
71176;SDS011;58877;51.992;4.504;2023-12-20T05:10:10;10.44;;;6.19;;
71176;SDS011;58877;51.992;4.504;2023-12-20T05:12:38;10.25;;;6.09;;
71176;SDS011;58877;51.992;4.504;2023-12-20T05:15:05;9.66;;;5.92;;
71176;SDS011;58877;51.992;4.504;2023-12-20T05:17:31;10.60;;;6.40;;
71176;SDS011;58877;51.992;4.504;2023-12-20T05:19:57;11.12;;;6.55;;
71176;SDS011;58877;51.992;4.504;2023-12-20T05:22:23;10.54;;;6.28;;
71176;SDS011;58877;51.992;4.504;2023-12-20T05:24:48;11.58;;;6.92;;
71176;SDS011;58877;51.992;4.504;2023-12-20T05:27:14;9.99;;;5.90;;
71176;SDS011;58877;51.992;4.504;2023-12-20T05:29:40;12.31;;;7.17;;
71176;SDS011;58877;51.992;4.504;2023-12-20T05:32:05;12.76;;;7.49;;
71176;SDS011;58877;51.992;4.504;2023-12-20T05:34:31;11.45;;;6.77;;
71176;SDS011;58877;51.992;4.504;2023-12-20T05:36:57;12.54;;;7.40;;
71176;SDS011;58877;51.992;4.504;2023-12-20T05:39:23;10.92;;;6.48;;
71176;SDS011;58877;51.992;4.504;2023-12-20T05:41:48;12.35;;;7.33;;
71176;SDS011;58877;51.992;4.504;2023-12-20T05:44:14;11.05;;;6.56;;
71176;SDS011;58877;51.992;4.504;2023-12-20T05:46:40;12.30;;;7.26;;
71176;SDS011;58877;51.992;4.504;2023-12-20T05:49:05;10.34;;;6.15;;
71176;SDS011;58877;51.992;4.504;2023-12-20T05:51:31;11.27;;;6.72;;
71176;SDS011;58877;51.992;4.504;2023-12-20T05:53:58;9.36;;;5.60;;
71176;SDS011;58877;51.992;4.504;2023-12-20T05:56:24;10.08;;;6.12;;
71176;SDS011;58877;51.992;4.504;2023-12-20T05:58:49;9.74;;;5.85;;
71176;SDS011;58877;51.992;4.504;2023-12-20T06:01:16;9.88;;;5.99;;
71176;SDS011;58877;51.992;4.504;2023-12-20T06:03:44;9.92;;;6.02;;
71176;SDS011;58877;51.992;4.504;2023-12-20T06:06:11;9.89;;;6.02;;
71176;SDS011;58877;51.992;4.504;2023-12-20T06:08:38;9.84;;;5.98;;
71176;SDS011;58877;51.992;4.504;2023-12-20T06:11:04;12.12;;;7.30;;
71176;SDS011;58877;51.992;4.504;2023-12-20T06:13:30;12.84;;;7.56;;
71176;SDS011;58877;51.992;4.504;2023-12-20T06:15:56;11.95;;;6.98;;
71176;SDS011;58877;51.992;4.504;2023-12-20T06:18:23;11.40;;;6.64;;
71176;SDS011;58877;51.992;4.504;2023-12-20T06:20:49;11.59;;;6.91;;
71176;SDS011;58877;51.992;4.504;2023-12-20T06:23:15;10.89;;;6.51;;
71176;SDS011;58877;51.992;4.504;2023-12-20T06:25:40;10.02;;;5.96;;
71176;SDS011;58877;51.992;4.504;2023-12-20T06:28:06;11.17;;;6.53;;
71176;SDS011;58877;51.992;4.504;2023-12-20T06:30:31;11.51;;;6.74;;
71176;SDS011;58877;51.992;4.504;2023-12-20T06:32:58;11.52;;;6.78;;
71176;SDS011;58877;51.992;4.504;2023-12-20T06:35:23;12.32;;;7.23;;
71176;SDS011;58877;51.992;4.504;2023-12-20T06:37:52;11.34;;;6.72;;
71176;SDS011;58877;51.992;4.504;2023-12-20T06:40:18;12.39;;;7.22;;
71176;SDS011;58877;51.992;4.504;2023-12-20T06:42:44;10.71;;;6.32;;
71176;SDS011;58877;51.992;4.504;2023-12-20T06:45:10;11.74;;;7.07;;
71176;SDS011;58877;51.992;4.504;2023-12-20T06:47:37;11.27;;;6.86;;
71176;SDS011;58877;51.992;4.504;2023-12-20T06:50:04;8.82;;;5.42;;
71176;SDS011;58877;51.992;4.504;2023-12-20T06:52:30;8.98;;;5.44;;
71176;SDS011;58877;51.992;4.504;2023-12-20T06:54:55;10.68;;;6.41;;
71176;SDS011;58877;51.992;4.504;2023-12-20T06:57:21;9.58;;;5.84;;
71176;SDS011;58877;51.992;4.504;2023-12-20T06:59:47;11.89;;;7.17;;
71176;SDS011;58877;51.992;4.504;2023-12-20T07:02:12;10.51;;;6.27;;
71176;SDS011;58877;51.992;4.504;2023-12-20T07:04:41;11.42;;;6.75;;
71176;SDS011;58877;51.992;4.504;2023-12-20T07:07:06;12.06;;;7.09;;
71176;SDS011;58877;51.992;4.504;2023-12-20T07:09:32;11.66;;;6.91;;
71176;SDS011;58877;51.992;4.504;2023-12-20T07:11:59;11.12;;;6.67;;
71176;SDS011;58877;51.992;4.504;2023-12-20T07:14:24;11.44;;;6.84;;
71176;SDS011;58877;51.992;4.504;2023-12-20T07:16:50;11.11;;;6.65;;
71176;SDS011;58877;51.992;4.504;2023-12-20T07:19:16;11.19;;;6.68;;
71176;SDS011;58877;51.992;4.504;2023-12-20T07:21:41;10.72;;;6.38;;
71176;SDS011;58877;51.992;4.504;2023-12-20T07:24:07;10.68;;;6.36;;
71176;SDS011;58877;51.992;4.504;2023-12-20T07:26:33;9.94;;;6.03;;
71176;SDS011;58877;51.992;4.504;2023-12-20T07:28:59;13.77;;;8.18;;
71176;SDS011;58877;51.992;4.504;2023-12-20T07:31:25;9.96;;;5.95;;
71176;SDS011;58877;51.992;4.504;2023-12-20T07:33:51;9.60;;;5.82;;
71176;SDS011;58877;51.992;4.504;2023-12-20T07:36:17;9.20;;;5.64;;
71176;SDS011;58877;51.992;4.504;2023-12-20T07:38:51;12.01;;;7.29;;
71176;SDS011;58877;51.992;4.504;2023-12-20T07:41:17;10.46;;;6.26;;
71176;SDS011;58877;51.992;4.504;2023-12-20T07:43:44;10.57;;;6.33;;
71176;SDS011;58877;51.992;4.504;2023-12-20T07:46:09;9.88;;;5.95;;
71176;SDS011;58877;51.992;4.504;2023-12-20T07:48:35;11.76;;;6.96;;
71176;SDS011;58877;51.992;4.504;2023-12-20T07:51:01;12.18;;;7.15;;
71176;SDS011;58877;51.992;4.504;2023-12-20T07:53:27;9.84;;;5.84;;
71176;SDS011;58877;51.992;4.504;2023-12-20T07:55:53;9.85;;;5.94;;
71176;SDS011;58877;51.992;4.504;2023-12-20T07:58:18;11.99;;;7.12;;
71176;SDS011;58877;51.992;4.504;2023-12-20T08:00:44;9.73;;;5.82;;
71176;SDS011;58877;51.992;4.504;2023-12-20T08:03:10;10.04;;;6.07;;
71176;SDS011;58877;51.992;4.504;2023-12-20T08:05:38;11.16;;;6.75;;
71176;SDS011;58877;51.992;4.504;2023-12-20T08:08:05;9.53;;;5.73;;
71176;SDS011;58877;51.992;4.504;2023-12-20T08:10:35;11.15;;;6.59;;
71176;SDS011;58877;51.992;4.504;2023-12-20T08:13:00;11.94;;;7.06;;
71176;SDS011;58877;51.992;4.504;2023-12-20T08:15:26;11.07;;;6.59;;
71176;SDS011;58877;51.992;4.504;2023-12-20T08:17:51;10.54;;;6.30;;
71176;SDS011;58877;51.992;4.504;2023-12-20T08:20:17;10.03;;;6.02;;
71176;SDS011;58877;51.992;4.504;2023-12-20T08:22:43;10.02;;;5.93;;
71176;SDS011;58877;51.992;4.504;2023-12-20T08:25:09;11.55;;;6.84;;
71176;SDS011;58877;51.992;4.504;2023-12-20T08:27:39;11.08;;;6.57;;
71176;SDS011;58877;51.992;4.504;2023-12-20T08:30:05;10.28;;;6.12;;
71176;SDS011;58877;51.992;4.504;2023-12-20T08:32:33;10.81;;;6.37;;
71176;SDS011;58877;51.992;4.504;2023-12-20T08:35:02;9.90;;;5.79;;
71176;SDS011;58877;51.992;4.504;2023-12-20T08:37:27;11.96;;;6.97;;
71176;SDS011;58877;51.992;4.504;2023-12-20T08:39:55;10.33;;;6.10;;
71176;SDS011;58877;51.992;4.504;2023-12-20T08:42:26;9.40;;;5.63;;
71176;SDS011;58877;51.992;4.504;2023-12-20T08:44:56;9.02;;;5.52;;
71176;SDS011;58877;51.992;4.504;2023-12-20T08:47:23;9.91;;;6.01;;
71176;SDS011;58877;51.992;4.504;2023-12-20T08:49:52;10.17;;;6.04;;
71176;SDS011;58877;51.992;4.504;2023-12-20T08:52:22;11.05;;;6.53;;
71176;SDS011;58877;51.992;4.504;2023-12-20T08:54:49;10.60;;;6.31;;
71176;SDS011;58877;51.992;4.504;2023-12-20T08:57:18;10.00;;;5.91;;
71176;SDS011;58877;51.992;4.504;2023-12-20T08:59:44;9.91;;;5.91;;
71176;SDS011;58877;51.992;4.504;2023-12-20T09:02:13;9.38;;;5.62;;
71176;SDS011;58877;51.992;4.504;2023-12-20T09:04:39;10.10;;;6.03;;
71176;SDS011;58877;51.992;4.504;2023-12-20T09:07:05;10.70;;;6.34;;
71176;SDS011;58877;51.992;4.504;2023-12-20T09:09:30;9.72;;;5.79;;
71176;SDS011;58877;51.992;4.504;2023-12-20T09:11:57;10.95;;;6.53;;
71176;SDS011;58877;51.992;4.504;2023-12-20T09:14:23;11.76;;;7.00;;
71176;SDS011;58877;51.992;4.504;2023-12-20T09:16:48;10.59;;;6.25;;
71176;SDS011;58877;51.992;4.504;2023-12-20T09:19:16;10.44;;;6.17;;
71176;SDS011;58877;51.992;4.504;2023-12-20T09:21:42;10.04;;;5.98;;
71176;SDS011;58877;51.992;4.504;2023-12-20T09:24:07;9.47;;;5.65;;
71176;SDS011;58877;51.992;4.504;2023-12-20T09:26:34;9.95;;;5.90;;
71176;SDS011;58877;51.992;4.504;2023-12-20T09:29:00;11.06;;;6.53;;
71176;SDS011;58877;51.992;4.504;2023-12-20T09:31:25;9.93;;;5.91;;
71176;SDS011;58877;51.992;4.504;2023-12-20T09:33:52;10.76;;;6.41;;
71176;SDS011;58877;51.992;4.504;2023-12-20T09:36:17;9.09;;;5.42;;
71176;SDS011;58877;51.992;4.504;2023-12-20T09:38:43;10.04;;;6.03;;
71176;SDS011;58877;51.992;4.504;2023-12-20T09:41:11;11.41;;;6.85;;
71176;SDS011;58877;51.992;4.504;2023-12-20T09:43:37;11.95;;;7.08;;
71176;SDS011;58877;51.992;4.504;2023-12-20T09:46:05;12.11;;;7.10;;
71176;SDS011;58877;51.992;4.504;2023-12-20T09:48:32;11.64;;;6.81;;
71176;SDS011;58877;51.992;4.504;2023-12-20T09:50:58;9.09;;;5.37;;
71176;SDS011;58877;51.992;4.504;2023-12-20T09:53:24;10.72;;;6.39;;
71176;SDS011;58877;51.992;4.504;2023-12-20T09:55:58;9.68;;;5.73;;
71176;SDS011;58877;51.992;4.504;2023-12-20T09:58:25;11.63;;;6.88;;
71176;SDS011;58877;51.992;4.504;2023-12-20T10:00:51;11.47;;;6.85;;
71176;SDS011;58877;51.992;4.504;2023-12-20T10:03:20;10.37;;;6.14;;
71176;SDS011;58877;51.992;4.504;2023-12-20T10:05:52;10.42;;;6.13;;
71176;SDS011;58877;51.992;4.504;2023-12-20T10:08:21;11.14;;;6.57;;
71176;SDS011;58877;51.992;4.504;2023-12-20T10:10:47;9.37;;;5.51;;
71176;SDS011;58877;51.992;4.504;2023-12-20T10:13:13;8.83;;;5.31;;
71176;SDS011;58877;51.992;4.504;2023-12-20T10:15:47;12.27;;;7.16;;
71176;SDS011;58877;51.992;4.504;2023-12-20T10:18:14;10.66;;;6.22;;
71176;SDS011;58877;51.992;4.504;2023-12-20T10:20:41;9.63;;;5.70;;
71176;SDS011;58877;51.992;4.504;2023-12-20T10:23:08;10.15;;;5.99;;
71176;SDS011;58877;51.992;4.504;2023-12-20T10:25:34;8.56;;;5.05;;
71176;SDS011;58877;51.992;4.504;2023-12-20T10:28:09;10.55;;;6.24;;
71176;SDS011;58877;51.992;4.504;2023-12-20T10:30:40;8.84;;;5.27;;
71176;SDS011;58877;51.992;4.504;2023-12-20T10:33:06;9.69;;;5.77;;
71176;SDS011;58877;51.992;4.504;2023-12-20T10:35:33;9.06;;;5.40;;
71176;SDS011;58877;51.992;4.504;2023-12-20T10:38:02;9.60;;;5.76;;
71176;SDS011;58877;51.992;4.504;2023-12-20T10:40:36;9.09;;;5.40;;
71176;SDS011;58877;51.992;4.504;2023-12-20T10:43:02;8.30;;;4.91;;
71176;SDS011;58877;51.992;4.504;2023-12-20T10:45:33;9.43;;;5.61;;
71176;SDS011;58877;51.992;4.504;2023-12-20T10:48:02;10.99;;;6.46;;
71176;SDS011;58877;51.992;4.504;2023-12-20T10:50:28;10.19;;;5.94;;
71176;SDS011;58877;51.992;4.504;2023-12-20T10:52:56;9.95;;;5.88;;
71176;SDS011;58877;51.992;4.504;2023-12-20T10:55:23;10.25;;;6.09;;
71176;SDS011;58877;51.992;4.504;2023-12-20T10:57:50;11.50;;;6.74;;
71176;SDS011;58877;51.992;4.504;2023-12-20T11:00:17;10.45;;;6.04;;
71176;SDS011;58877;51.992;4.504;2023-12-20T11:02:44;11.50;;;6.71;;
71176;SDS011;58877;51.992;4.504;2023-12-20T11:10:59;9.43;;;5.55;;
71176;SDS011;58877;51.992;4.504;2023-12-20T11:13:30;10.99;;;6.39;;
71176;SDS011;58877;51.992;4.504;2023-12-20T11:16:01;11.00;;;6.36;;
71176;SDS011;58877;51.992;4.504;2023-12-20T11:18:28;12.03;;;6.88;;
71176;SDS011;58877;51.992;4.504;2023-12-20T11:21:06;8.94;;;5.19;;
71176;SDS011;58877;51.992;4.504;2023-12-20T11:23:32;9.90;;;5.83;;
71176;SDS011;58877;51.992;4.504;2023-12-20T11:25:59;8.96;;;5.27;;
71176;SDS011;58877;51.992;4.504;2023-12-20T11:28:29;9.21;;;5.37;;
71176;SDS011;58877;51.992;4.504;2023-12-20T11:30:55;9.24;;;5.47;;
71176;SDS011;58877;51.992;4.504;2023-12-20T11:33:32;9.06;;;5.35;;
71176;SDS011;58877;51.992;4.504;2023-12-20T11:36:02;9.80;;;5.77;;
71176;SDS011;58877;51.992;4.504;2023-12-20T11:38:37;10.45;;;6.13;;
71176;SDS011;58877;51.992;4.504;2023-12-20T11:41:04;8.67;;;5.07;;
71176;SDS011;58877;51.992;4.504;2023-12-20T11:46:02;9.40;;;5.56;;
71176;SDS011;58877;51.992;4.504;2023-12-20T11:48:32;8.93;;;5.34;;
71176;SDS011;58877;51.992;4.504;2023-12-20T11:50:59;9.65;;;5.82;;
71176;SDS011;58877;51.992;4.504;2023-12-20T11:53:25;7.87;;;4.76;;
71176;SDS011;58877;51.992;4.504;2023-12-20T11:55:51;8.61;;;5.16;;
71176;SDS011;58877;51.992;4.504;2023-12-20T11:58:16;10.06;;;5.95;;
71176;SDS011;58877;51.992;4.504;2023-12-20T12:00:42;9.00;;;5.27;;
71176;SDS011;58877;51.992;4.504;2023-12-20T12:03:08;9.44;;;5.53;;
71176;SDS011;58877;51.992;4.504;2023-12-20T12:05:35;9.07;;;5.30;;
71176;SDS011;58877;51.992;4.504;2023-12-20T12:08:01;10.40;;;6.05;;
71176;SDS011;58877;51.992;4.504;2023-12-20T12:10:33;10.94;;;6.35;;
71176;SDS011;58877;51.992;4.504;2023-12-20T12:12:59;9.62;;;5.64;;
71176;SDS011;58877;51.992;4.504;2023-12-20T12:15:25;8.81;;;5.17;;
71176;SDS011;58877;51.992;4.504;2023-12-20T12:17:57;9.94;;;5.78;;
71176;SDS011;58877;51.992;4.504;2023-12-20T12:20:24;11.46;;;6.68;;
71176;SDS011;58877;51.992;4.504;2023-12-20T12:23:05;8.21;;;4.89;;
71176;SDS011;58877;51.992;4.504;2023-12-20T12:25:32;9.36;;;5.59;;
71176;SDS011;58877;51.992;4.504;2023-12-20T12:27:59;9.33;;;5.53;;
71176;SDS011;58877;51.992;4.504;2023-12-20T12:30:25;10.83;;;6.28;;
71176;SDS011;58877;51.992;4.504;2023-12-20T12:32:52;8.13;;;4.70;;
71176;SDS011;58877;51.992;4.504;2023-12-20T12:35:18;9.59;;;5.53;;
71176;SDS011;58877;51.992;4.504;2023-12-20T12:37:44;7.84;;;4.61;;
71176;SDS011;58877;51.992;4.504;2023-12-20T12:40:13;8.64;;;5.11;;
71176;SDS011;58877;51.992;4.504;2023-12-20T12:42:41;7.61;;;4.51;;
71176;SDS011;58877;51.992;4.504;2023-12-20T12:45:11;9.09;;;5.47;;
71176;SDS011;58877;51.992;4.504;2023-12-20T12:47:37;8.37;;;5.01;;
71176;SDS011;58877;51.992;4.504;2023-12-20T12:50:04;9.55;;;5.67;;
71176;SDS011;58877;51.992;4.504;2023-12-20T12:52:32;9.35;;;5.52;;
71176;SDS011;58877;51.992;4.504;2023-12-20T12:55:03;9.49;;;5.62;;
71176;SDS011;58877;51.992;4.504;2023-12-20T12:57:29;9.83;;;5.86;;
71176;SDS011;58877;51.992;4.504;2023-12-20T12:59:55;8.69;;;5.21;;
71176;SDS011;58877;51.992;4.504;2023-12-20T13:02:21;9.63;;;5.80;;
71176;SDS011;58877;51.992;4.504;2023-12-20T13:04:47;8.76;;;5.29;;
71176;SDS011;58877;51.992;4.504;2023-12-20T13:07:13;8.71;;;5.21;;
71176;SDS011;58877;51.992;4.504;2023-12-20T13:09:39;8.72;;;5.24;;
71176;SDS011;58877;51.992;4.504;2023-12-20T13:12:05;10.08;;;6.05;;
71176;SDS011;58877;51.992;4.504;2023-12-20T13:14:40;8.99;;;5.43;;
71176;SDS011;58877;51.992;4.504;2023-12-20T13:17:06;9.28;;;5.55;;
71176;SDS011;58877;51.992;4.504;2023-12-20T13:19:32;9.53;;;5.65;;
71176;SDS011;58877;51.992;4.504;2023-12-20T13:21:57;8.58;;;5.07;;
71176;SDS011;58877;51.992;4.504;2023-12-20T13:24:25;9.90;;;5.80;;
71176;SDS011;58877;51.992;4.504;2023-12-20T13:26:51;7.71;;;4.57;;
71176;SDS011;58877;51.992;4.504;2023-12-20T13:29:17;7.76;;;4.62;;
71176;SDS011;58877;51.992;4.504;2023-12-20T13:31:42;9.50;;;5.68;;
71176;SDS011;58877;51.992;4.504;2023-12-20T13:34:08;9.57;;;5.61;;
71176;SDS011;58877;51.992;4.504;2023-12-20T13:36:33;7.97;;;4.72;;
71176;SDS011;58877;51.992;4.504;2023-12-20T13:38:59;8.83;;;5.26;;
71176;SDS011;58877;51.992;4.504;2023-12-20T13:41:25;8.70;;;5.16;;
71176;SDS011;58877;51.992;4.504;2023-12-20T13:43:53;10.53;;;6.23;;
71176;SDS011;58877;51.992;4.504;2023-12-20T13:46:19;7.98;;;4.78;;
71176;SDS011;58877;51.992;4.504;2023-12-20T13:48:45;7.98;;;4.79;;
71176;SDS011;58877;51.992;4.504;2023-12-20T13:51:10;8.36;;;5.09;;
71176;SDS011;58877;51.992;4.504;2023-12-20T13:53:36;9.02;;;5.45;;
71176;SDS011;58877;51.992;4.504;2023-12-20T13:56:06;8.90;;;5.32;;
71176;SDS011;58877;51.992;4.504;2023-12-20T13:58:32;10.23;;;6.03;;
71176;SDS011;58877;51.992;4.504;2023-12-20T14:00:58;11.36;;;6.65;;
71176;SDS011;58877;51.992;4.504;2023-12-20T14:03:24;10.61;;;6.25;;
71176;SDS011;58877;51.992;4.504;2023-12-20T14:05:49;8.46;;;5.00;;
71176;SDS011;58877;51.992;4.504;2023-12-20T14:08:15;10.19;;;6.11;;
71176;SDS011;58877;51.992;4.504;2023-12-20T14:10:40;8.04;;;4.85;;
71176;SDS011;58877;51.992;4.504;2023-12-20T14:13:06;10.12;;;6.23;;
71176;SDS011;58877;51.992;4.504;2023-12-20T14:15:31;8.66;;;5.32;;
71176;SDS011;58877;51.992;4.504;2023-12-20T14:18:05;7.76;;;4.75;;
71176;SDS011;58877;51.992;4.504;2023-12-20T14:20:33;6.99;;;4.37;;
71176;SDS011;58877;51.992;4.504;2023-12-20T14:23:02;8.60;;;5.29;;
71176;SDS011;58877;51.992;4.504;2023-12-20T14:25:31;9.39;;;5.76;;
71176;SDS011;58877;51.992;4.504;2023-12-20T14:27:56;9.48;;;5.79;;
71176;SDS011;58877;51.992;4.504;2023-12-20T14:30:22;7.77;;;4.75;;
71176;SDS011;58877;51.992;4.504;2023-12-20T14:32:48;9.40;;;5.78;;
71176;SDS011;58877;51.992;4.504;2023-12-20T14:35:14;8.81;;;5.38;;
71176;SDS011;58877;51.992;4.504;2023-12-20T14:37:39;8.52;;;5.19;;
71176;SDS011;58877;51.992;4.504;2023-12-20T14:40:06;8.06;;;5.00;;
71176;SDS011;58877;51.992;4.504;2023-12-20T14:42:40;8.43;;;5.15;;
71176;SDS011;58877;51.992;4.504;2023-12-20T14:45:06;8.68;;;5.24;;
71176;SDS011;58877;51.992;4.504;2023-12-20T14:47:32;8.01;;;4.77;;
71176;SDS011;58877;51.992;4.504;2023-12-20T14:49:58;9.37;;;5.62;;